createdAt,value
2023-03-05T00:00:37.439Z,100396.29
2023-03-05T00:02:52.899Z,100392.55
2023-03-05T00:05:04.779Z,100387.75
2023-03-05T00:07:16.185Z,100382.02
2023-03-05T00:09:27.782Z,100377.45
2023-03-05T00:11:39.928Z,100375.83
2023-03-05T00:13:52.442Z,100376.61
2023-03-05T00:16:11.465Z,100373.19
2023-03-05T00:18:23.686Z,100371.08
2023-03-05T00:20:35.475Z,100367.11
2023-03-05T00:22:47.675Z,100371.66
2023-03-05T00:25:00.081Z,100366.61
2023-03-05T00:27:11.976Z,100362.65
2023-03-05T00:29:23.760Z,100363.53
2023-03-05T00:31:36.731Z,100356.48
2023-03-05T00:33:57.302Z,100352.40
2023-03-05T00:36:09.906Z,100351.22
2023-03-05T00:38:22.407Z,100345.25
2023-03-05T00:40:42.260Z,100349.11
2023-03-05T00:42:53.857Z,100348.24
2023-03-05T00:45:08.059Z,100348.39
2023-03-05T00:47:20.208Z,100346.09
2023-03-05T00:49:32.307Z,100346.00
2023-03-05T00:51:43.987Z,100347.18
2023-03-05T00:53:56.809Z,100342.55
2023-03-05T00:56:08.795Z,100346.38
2023-03-05T00:58:20.686Z,100342.07
2023-03-05T01:00:32.383Z,100342.95
2023-03-05T01:02:44.609Z,100337.23
2023-03-05T01:04:56.991Z,100331.70
2023-03-05T01:07:09.305Z,100329.98
2023-03-05T01:09:22.183Z,100325.11
2023-03-05T01:11:34.322Z,100321.63
2023-03-05T01:13:46.167Z,100320.06
2023-03-05T01:15:57.792Z,100321.08
2023-03-05T01:18:10.255Z,100318.63
2023-03-05T01:20:23.434Z,100317.16
2023-03-05T01:22:35.282Z,100313.88
2023-03-05T01:24:47.465Z,100313.32
2023-03-05T01:26:59.766Z,100310.92
2023-03-05T01:29:11.773Z,100308.99
2023-03-05T01:31:23.917Z,100306.86
2023-03-05T01:33:36.161Z,100306.35
2023-03-05T01:35:49.442Z,100308.81
2023-03-05T01:38:01.381Z,100308.23
2023-03-05T01:40:16.852Z,100302.13
2023-03-05T01:42:29.154Z,100299.05
2023-03-05T01:45:01.691Z,100294.48
2023-03-05T01:47:13.522Z,100289.95
2023-03-05T01:49:38.787Z,100291.56
2023-03-05T01:52:07.113Z,100287.27
2023-03-05T01:54:22.853Z,100285.77
2023-03-05T01:56:35.192Z,100283.85
2023-03-05T01:58:47.289Z,100287.77
2023-03-05T02:00:58.915Z,100284.55
2023-03-05T02:03:12.424Z,100287.40
2023-03-05T02:05:29.124Z,100279.56
2023-03-05T02:07:43.150Z,100280.52
2023-03-05T02:09:55.144Z,100277.48
2023-03-05T02:12:09.087Z,100278.71
2023-03-05T02:14:24.458Z,100274.50
2023-03-05T02:16:38.549Z,100267.16
2023-03-05T02:18:50.707Z,100267.84
2023-03-05T02:21:04.030Z,100267.82
2023-03-05T02:23:15.823Z,100263.27
2023-03-05T02:25:29.656Z,100254.33
2023-03-05T02:27:44.568Z,100251.88
2023-03-05T02:29:56.513Z,100252.63
2023-03-05T02:32:09.742Z,100249.15
2023-03-05T02:34:23.269Z,100244.25
2023-03-05T02:36:35.571Z,100241.61
2023-03-05T02:38:48.286Z,100237.23
2023-03-05T02:41:00.997Z,100231.31
2023-03-05T02:43:13.319Z,100226.04
2023-03-05T02:45:25.186Z,100229.58
2023-03-05T02:47:37.182Z,100219.45
2023-03-05T02:49:49.281Z,100210.20
2023-03-05T02:52:02.511Z,100210.77
2023-03-05T02:54:14.602Z,100206.31
2023-03-05T02:56:26.594Z,100203.01
2023-03-05T02:58:39.320Z,100202.95
2023-03-05T03:00:51.534Z,100193.02
2023-03-05T03:03:03.333Z,100197.00
2023-03-05T03:05:14.985Z,100196.78
2023-03-05T03:07:27.081Z,100193.26
2023-03-05T03:09:39.892Z,100189.89
2023-03-05T03:11:51.584Z,100190.65
2023-03-05T03:14:03.474Z,100186.11
2023-03-05T03:16:15.880Z,100185.02
2023-03-05T03:18:27.875Z,100186.80
2023-03-05T03:20:39.766Z,100180.85
2023-03-05T03:22:52.181Z,100178.92
2023-03-05T03:25:05.678Z,100174.05
2023-03-05T03:27:17.493Z,100174.64
2023-03-05T03:29:29.958Z,100169.02
2023-03-05T03:31:41.995Z,100166.70
2023-03-05T03:33:54.399Z,100166.09
2023-03-05T03:36:07.014Z,100164.55
2023-03-05T03:38:18.698Z,100159.42
2023-03-05T03:40:31.124Z,100158.72
2023-03-05T03:42:43.018Z,100155.70
2023-03-05T03:44:55.202Z,100153.88
2023-03-05T03:47:07.091Z,100147.56
2023-03-05T03:49:21.847Z,100147.46
2023-03-05T03:51:34.046Z,100144.08
2023-03-05T03:53:45.733Z,100143.06
2023-03-05T03:55:59.570Z,100141.83
2023-03-05T03:58:11.363Z,100137.73
2023-03-05T04:00:23.058Z,100130.29
2023-03-05T04:02:35.308Z,100129.94
2023-03-05T04:04:47.345Z,100127.01
2023-03-05T04:06:59.652Z,100125.46
2023-03-05T04:09:11.438Z,100118.45
2023-03-05T04:11:23.433Z,100109.83
2023-03-05T04:13:35.234Z,100108.91
2023-03-05T04:15:46.935Z,100106.08
2023-03-05T04:17:58.803Z,100101.48
2023-03-05T04:20:11.619Z,100099.58
2023-03-05T04:22:23.523Z,100094.11
2023-03-05T04:24:35.298Z,100089.84
2023-03-05T04:26:47.404Z,100085.06
2023-03-05T04:28:59.289Z,100079.47
2023-03-05T04:31:11.177Z,100081.54
2023-03-05T04:33:23.683Z,100077.70
2023-03-05T04:35:35.502Z,100076.61
2023-03-05T04:37:47.524Z,100074.89
2023-03-05T04:39:59.766Z,100073.05
2023-03-05T04:42:11.252Z,100074.09
2023-03-05T04:44:25.341Z,100072.39
2023-03-05T04:46:37.560Z,100073.44
2023-03-05T04:48:49.690Z,100068.24
2023-03-05T04:51:01.279Z,100065.73
2023-03-05T04:53:12.985Z,100065.02
2023-03-05T04:55:25.057Z,100058.32
2023-03-05T04:57:38.177Z,100054.20
2023-03-05T04:59:50.071Z,100054.59
2023-03-05T05:02:02.243Z,100053.02
2023-03-05T05:04:14.471Z,100046.81
2023-03-05T05:06:26.262Z,100043.80
2023-03-05T05:08:38.461Z,100036.37
2023-03-05T05:10:58.490Z,100031.74
2023-03-05T05:13:10.049Z,100031.65
2023-03-05T05:15:21.697Z,100030.15
2023-03-05T05:17:34.346Z,100031.99
2023-03-05T05:19:46.115Z,100032.28
2023-03-05T05:21:57.804Z,100039.14
2023-03-05T05:24:10.412Z,100041.10
2023-03-05T05:26:22.311Z,100043.19
2023-03-05T05:28:36.140Z,100041.46
2023-03-05T05:30:48.238Z,100042.33
2023-03-05T05:33:00.128Z,100042.41
2023-03-05T05:35:12.435Z,100041.46
2023-03-05T05:37:26.089Z,100041.38
2023-03-05T05:39:38.474Z,100043.54
2023-03-05T05:41:51.502Z,100043.02
2023-03-05T05:44:03.395Z,100039.83
2023-03-05T05:46:18.171Z,100035.39
2023-03-05T05:48:31.781Z,100039.33
2023-03-05T05:50:43.980Z,100039.73
2023-03-05T05:52:55.874Z,100038.61
2023-03-05T05:55:08.606Z,100037.23
2023-03-05T05:57:20.680Z,100034.16
2023-03-05T05:59:32.987Z,100033.41
2023-03-05T06:01:45.083Z,100032.45
2023-03-05T06:03:57.486Z,100030.33
2023-03-05T06:06:11.809Z,100032.02
2023-03-05T06:08:23.522Z,100031.75
2023-03-05T06:10:35.416Z,100029.20
2023-03-05T06:12:46.897Z,100022.80
2023-03-05T06:14:58.890Z,100015.48
2023-03-05T06:17:12.878Z,100016.34
2023-03-05T06:19:27.185Z,100010.70
2023-03-05T06:21:39.589Z,100010.70
2023-03-05T06:23:51.796Z,100007.77
2023-03-05T06:26:06.649Z,100008.20
2023-03-05T06:28:18.948Z,100006.83
2023-03-05T06:30:30.804Z,100006.31
2023-03-05T06:32:42.834Z,100007.30
2023-03-05T06:34:54.728Z,100008.48
2023-03-05T06:37:06.420Z,100010.38
2023-03-05T06:39:18.519Z,100010.89
2023-03-05T06:41:31.330Z,100007.73
2023-03-05T06:43:44.958Z,100010.35
2023-03-05T06:46:14.490Z,100007.90
2023-03-05T06:48:26.460Z,100006.41
2023-03-05T06:50:38.566Z,100007.61
2023-03-05T06:52:50.854Z,100005.86
2023-03-05T06:55:02.546Z,100005.73
2023-03-05T06:57:14.438Z,100004.34
2023-03-05T06:59:26.335Z,100002.36
2023-03-05T07:01:38.310Z,100001.83
2023-03-05T07:03:52.063Z,100001.55
2023-03-05T07:06:13.864Z,100004.23
2023-03-05T07:08:25.982Z,100000.63
2023-03-05T07:10:42.904Z,99996.75
2023-03-05T07:12:54.591Z,99994.58
2023-03-05T07:15:07.573Z,99996.57
2023-03-05T07:17:19.492Z,99993.53
2023-03-05T07:19:31.793Z,99984.42
2023-03-05T07:21:44.101Z,99987.81
2023-03-05T07:23:58.072Z,99988.71
2023-03-05T07:26:11.192Z,99990.00
2023-03-05T07:28:23.561Z,99986.48
2023-03-05T07:30:35.299Z,99985.94
2023-03-05T07:32:47.243Z,99987.42
2023-03-05T07:34:59.339Z,99984.26
2023-03-05T07:37:11.129Z,99977.67
2023-03-05T07:39:23.431Z,99982.70
2023-03-05T07:41:35.123Z,99979.45
2023-03-05T07:43:53.071Z,99981.87
2023-03-05T07:46:07.439Z,99980.17
2023-03-05T07:48:22.577Z,99975.21
2023-03-05T07:50:34.565Z,99974.08
2023-03-05T07:52:46.048Z,99970.70
2023-03-05T07:54:58.148Z,99970.70
2023-03-05T07:57:13.369Z,99967.39
2023-03-05T07:59:25.004Z,99969.39
2023-03-05T08:01:37.616Z,99965.20
2023-03-05T08:03:49.845Z,99958.48
2023-03-05T08:06:06.109Z,99961.87
2023-03-05T08:08:18.721Z,99963.54
2023-03-05T08:10:30.301Z,99958.84
2023-03-05T08:12:42.203Z,99958.27
2023-03-05T08:14:54.191Z,99956.44
2023-03-05T08:17:06.904Z,99958.91
2023-03-05T08:19:20.228Z,99953.98
2023-03-05T08:21:36.545Z,99956.22
2023-03-05T08:23:48.999Z,99954.60
2023-03-05T08:26:02.660Z,99956.08
2023-03-05T08:28:14.288Z,99957.36
2023-03-05T08:30:27.694Z,99949.77
2023-03-05T08:32:39.919Z,99952.56
2023-03-05T08:34:57.970Z,99944.88
2023-03-05T08:37:10.212Z,99947.55
2023-03-05T08:39:22.621Z,99939.78
2023-03-05T08:41:34.824Z,99941.33
2023-03-05T08:43:46.577Z,99938.10
2023-03-05T08:46:00.759Z,99936.05
2023-03-05T08:48:12.542Z,99939.19
2023-03-05T08:50:24.728Z,99940.24
2023-03-05T08:52:36.630Z,99934.67
2023-03-05T08:54:48.321Z,99934.84
2023-03-05T08:57:00.315Z,99931.15
2023-03-05T08:59:13.671Z,99935.19
2023-03-05T09:01:25.644Z,99933.43
2023-03-05T09:03:38.652Z,99933.98
2023-03-05T09:05:51.671Z,99928.97
2023-03-05T09:08:03.771Z,99926.20
2023-03-05T09:10:18.430Z,99924.20
2023-03-05T09:12:30.124Z,99928.31
2023-03-05T09:14:42.520Z,99924.21
2023-03-05T09:16:55.641Z,99922.87
2023-03-05T09:19:12.891Z,99921.10
2023-03-05T09:21:24.971Z,99921.70
2023-03-05T09:23:36.925Z,99916.58
2023-03-05T09:25:49.674Z,99918.46
2023-03-05T09:28:02.085Z,99919.39
2023-03-05T09:30:19.329Z,99923.38
2023-03-05T09:32:31.831Z,99918.86
2023-03-05T09:34:43.885Z,99919.22
2023-03-05T09:36:55.791Z,99919.64
2023-03-05T09:39:07.876Z,99917.56
2023-03-05T09:42:02.936Z,99916.55
2023-03-05T09:44:38.018Z,99921.78
2023-03-05T09:47:18.680Z,99917.09
2023-03-05T09:49:51.854Z,99917.93
2023-03-05T09:52:15.458Z,99920.91
2023-03-05T09:54:39.927Z,99914.39
2023-03-05T09:56:58.840Z,99907.58
2023-03-05T09:59:41.564Z,99906.16
2023-03-05T10:01:56.359Z,99903.20
2023-03-05T10:04:14.358Z,99907.34
2023-03-05T10:06:31.716Z,99906.91
2023-03-05T10:09:29.592Z,99906.81
2023-03-05T10:11:57.056Z,99902.85
2023-03-05T10:14:32.182Z,99906.92
2023-03-05T10:17:00.048Z,99908.19
2023-03-05T10:20:04.485Z,99904.88
2023-03-05T10:22:33.470Z,99905.98
2023-03-05T10:25:04.713Z,99902.04
2023-03-05T10:27:57.058Z,99900.27
2023-03-05T10:30:31.576Z,99894.29
2023-03-05T10:32:55.255Z,99886.34
2023-03-05T10:35:40.976Z,99882.09
2023-03-05T10:38:21.597Z,99882.85
2023-03-05T10:40:42.828Z,99881.64
2023-03-05T10:43:19.592Z,99880.70
2023-03-05T10:45:41.141Z,99880.20
2023-03-05T10:48:02.617Z,99882.33
2023-03-05T10:50:27.309Z,99883.00
2023-03-05T10:52:46.781Z,99880.60
2023-03-05T10:55:16.016Z,99876.63
2023-03-05T10:57:31.985Z,99876.77
2023-03-05T11:00:35.195Z,99872.21
2023-03-05T11:03:00.878Z,99873.76
2023-03-05T11:05:51.168Z,99875.70
2023-03-05T11:08:24.473Z,99866.35
2023-03-05T11:10:36.467Z,99873.80
2023-03-05T11:12:49.272Z,99876.46
2023-03-05T11:15:32.707Z,99872.39
2023-03-05T11:18:39.271Z,99871.05
2023-03-05T11:21:09.191Z,99875.10
2023-03-05T11:23:24.574Z,99872.96
2023-03-05T11:25:56.545Z,99871.20
2023-03-05T11:28:32.204Z,99868.58
2023-03-05T11:31:04.384Z,99881.05
2023-03-05T11:33:22.019Z,99882.44
2023-03-05T11:35:38.611Z,99888.16
2023-03-05T11:38:01.735Z,99883.34
2023-03-05T11:40:24.295Z,99879.16
2023-03-05T11:42:42.216Z,99878.55
2023-03-05T11:44:57.681Z,99877.08
2023-03-05T11:47:24.178Z,99879.20
2023-03-05T11:49:49.217Z,99880.15
2023-03-05T11:52:28.348Z,99880.32
2023-03-05T11:55:08.845Z,99882.66
2023-03-05T11:57:24.727Z,99882.30
2023-03-05T11:59:41.435Z,99883.02
2023-03-05T12:01:57.798Z,99885.47
2023-03-05T12:04:10.092Z,99891.33
2023-03-05T12:06:41.529Z,99884.23
2023-03-05T12:08:57.674Z,99881.37
2023-03-05T12:11:29.665Z,99884.78
2023-03-05T12:13:49.577Z,99881.12
2023-03-05T12:16:29.763Z,99876.84
2023-03-05T12:18:44.056Z,99877.47
2023-03-05T12:21:16.373Z,99878.69
2023-03-05T12:23:55.544Z,99871.94
2023-03-05T12:26:09.205Z,99876.09
2023-03-05T12:28:35.115Z,99877.65
2023-03-05T12:30:48.827Z,99875.58
2023-03-05T12:33:38.389Z,99881.95
2023-03-05T12:35:50.473Z,99880.08
2023-03-05T12:38:26.413Z,99881.55
2023-03-05T12:40:40.288Z,99882.52
2023-03-05T12:42:56.331Z,99876.87
2023-03-05T12:45:19.947Z,99876.89
2023-03-05T12:47:33.368Z,99876.90
2023-03-05T12:49:48.168Z,99873.58
2023-03-05T12:52:05.216Z,99869.80
2023-03-05T12:54:32.138Z,99862.68
2023-03-05T12:56:46.990Z,99857.61
2023-03-05T12:59:02.120Z,99862.10
2023-03-05T13:01:30.267Z,99863.06
2023-03-05T13:03:56.994Z,99862.91
2023-03-05T13:06:24.974Z,99862.58
2023-03-05T13:08:38.092Z,99865.54
2023-03-05T13:10:59.020Z,99864.06
2023-03-05T13:13:20.712Z,99867.52
2023-03-05T13:15:37.667Z,99867.52
2023-03-05T13:17:57.955Z,99865.06
2023-03-05T13:20:41.149Z,99857.06
2023-03-05T13:23:18.774Z,99858.90
2023-03-05T13:25:32.202Z,99864.96
2023-03-05T13:27:45.505Z,99866.07
2023-03-05T13:30:00.142Z,99870.11
2023-03-05T13:32:34.627Z,99870.52
2023-03-05T13:34:48.223Z,99876.52
2023-03-05T13:37:16.689Z,99872.71
2023-03-05T13:39:34.303Z,99867.89
2023-03-05T13:42:06.275Z,99865.75
2023-03-05T13:44:37.890Z,99860.39
2023-03-05T13:47:55.188Z,99862.33
2023-03-05T13:50:09.876Z,99862.50
2023-03-05T13:52:31.192Z,99859.36
2023-03-05T13:54:43.315Z,99859.15
2023-03-05T13:57:01.289Z,99857.59
2023-03-05T13:59:19.842Z,99856.00
2023-03-05T14:01:43.882Z,99856.11
2023-03-05T14:04:05.598Z,99854.95
2023-03-05T14:06:21.085Z,99851.94
2023-03-05T14:08:33.410Z,99841.55
2023-03-05T14:10:46.907Z,99840.29
2023-03-05T14:13:01.666Z,99836.35
2023-03-05T14:15:25.899Z,99837.35
2023-03-05T14:17:43.589Z,99836.31
2023-03-05T14:20:14.804Z,99832.90
2023-03-05T14:22:32.594Z,99832.60
2023-03-05T14:24:52.641Z,99830.90
2023-03-05T14:27:13.478Z,99833.02
2023-03-05T14:29:29.325Z,99836.42
2023-03-05T14:32:07.210Z,99835.41
2023-03-05T14:34:35.402Z,99830.73
2023-03-05T14:36:50.679Z,99829.27
2023-03-05T14:39:02.878Z,99826.15
2023-03-05T14:41:24.910Z,99826.23
2023-03-05T14:43:37.976Z,99820.38
2023-03-05T14:45:50.041Z,99814.17
2023-03-05T14:48:05.716Z,99818.36
2023-03-05T14:50:27.376Z,99819.29
2023-03-05T14:52:39.113Z,99820.63
2023-03-05T14:54:52.851Z,99816.42
2023-03-05T14:57:05.777Z,99818.80
2023-03-05T14:59:21.449Z,99820.86
2023-03-05T15:01:33.352Z,99815.42
2023-03-05T15:03:45.336Z,99816.29
2023-03-05T15:05:59.890Z,99816.85
2023-03-05T15:08:20.403Z,99813.76
2023-03-05T15:10:32.311Z,99809.36
2023-03-05T15:12:44.888Z,99810.38
2023-03-05T15:14:57.105Z,99804.30
2023-03-05T15:17:18.807Z,99803.91
2023-03-05T15:19:30.716Z,99802.86
2023-03-05T15:21:42.538Z,99804.67
2023-03-05T15:23:54.480Z,99800.05
2023-03-05T15:26:08.827Z,99799.81
2023-03-05T15:28:20.926Z,99800.59
2023-03-05T15:30:38.517Z,99799.75
2023-03-05T15:32:52.801Z,99799.11
2023-03-05T15:35:05.204Z,99797.05
2023-03-05T15:37:19.043Z,99794.54
2023-03-05T15:39:31.362Z,99796.09
2023-03-05T15:41:43.856Z,99796.80
2023-03-05T15:43:55.818Z,99798.95
2023-03-05T15:46:08.472Z,99800.92
2023-03-05T15:48:23.736Z,99797.09
2023-03-05T15:50:36.333Z,99799.93
2023-03-05T15:52:51.402Z,99797.13
2023-03-05T15:55:04.540Z,99800.70
2023-03-05T15:57:17.264Z,99801.98
2023-03-05T15:59:29.027Z,99801.27
2023-03-05T16:01:46.891Z,99798.27
2023-03-05T16:03:59.077Z,99801.10
2023-03-05T16:06:13.406Z,99800.13
2023-03-05T16:08:25.231Z,99804.95
2023-03-05T16:10:39.753Z,99799.16
2023-03-05T16:12:57.789Z,99797.90
2023-03-05T16:15:11.957Z,99797.50
2023-03-05T16:17:25.054Z,99801.02
2023-03-05T16:19:42.225Z,99799.60
2023-03-05T16:21:54.582Z,99801.60
2023-03-05T16:24:07.073Z,99800.03
2023-03-05T16:26:19.045Z,99800.89
2023-03-05T16:28:30.896Z,99803.14
2023-03-05T16:30:43.028Z,99804.52
2023-03-05T16:32:54.756Z,99808.62
2023-03-05T16:35:06.858Z,99806.11
2023-03-05T16:37:21.409Z,99810.11
2023-03-05T16:39:34.222Z,99807.55
2023-03-05T16:41:48.371Z,99814.48
2023-03-05T16:44:00.258Z,99812.38
2023-03-05T16:46:14.805Z,99817.83
2023-03-05T16:48:29.165Z,99819.96
2023-03-05T16:50:40.753Z,99817.86
2023-03-05T16:52:52.745Z,99820.22
2023-03-05T16:55:06.472Z,99819.40
2023-03-05T16:57:18.244Z,99820.39
2023-03-05T16:59:30.468Z,99821.61
2023-03-05T17:01:42.772Z,99824.21
2023-03-05T17:03:57.882Z,99821.59
2023-03-05T17:06:18.578Z,99825.33
2023-03-05T17:08:30.750Z,99825.30
2023-03-05T17:10:43.958Z,99829.77
2023-03-05T17:12:56.873Z,99827.70
2023-03-05T17:15:09.584Z,99825.00
2023-03-05T17:17:21.275Z,99824.85
2023-03-05T17:19:33.135Z,99825.78
2023-03-05T17:21:45.570Z,99819.27
2023-03-05T17:23:57.668Z,99821.60
2023-03-05T17:26:16.680Z,99822.84
2023-03-05T17:28:28.937Z,99820.77
2023-03-05T17:30:41.083Z,99818.45
2023-03-05T17:32:54.140Z,99818.85
2023-03-05T17:35:07.903Z,99820.25
2023-03-05T17:37:19.669Z,99822.34
2023-03-05T17:39:31.669Z,99821.02
2023-03-05T17:41:43.557Z,99820.50
2023-03-05T17:43:55.348Z,99822.75
2023-03-05T17:46:07.492Z,99822.23
2023-03-05T17:48:19.437Z,99820.01
2023-03-05T17:50:31.536Z,99819.47
2023-03-05T17:52:43.629Z,99819.31
2023-03-05T17:54:56.837Z,99823.61
2023-03-05T17:57:09.670Z,99824.80
2023-03-05T17:59:22.791Z,99823.85
2023-03-05T18:01:35.136Z,99823.95
2023-03-05T18:03:47.315Z,99821.55
2023-03-05T18:06:00.008Z,99823.04
2023-03-05T18:08:13.026Z,99820.96
2023-03-05T18:10:28.706Z,99822.30
2023-03-05T18:12:41.761Z,99822.14
2023-03-05T18:14:54.859Z,99819.56
2023-03-05T18:17:06.838Z,99817.23
2023-03-05T18:19:19.655Z,99817.98
2023-03-05T18:21:33.183Z,99816.17
2023-03-05T18:23:47.021Z,99817.15
2023-03-05T18:25:58.922Z,99818.46
2023-03-05T18:28:13.690Z,99817.77
2023-03-05T18:30:27.789Z,99821.31
2023-03-05T18:32:40.657Z,99822.36
2023-03-05T18:34:52.334Z,99818.24
2023-03-05T18:37:04.930Z,99820.36
2023-03-05T18:39:19.337Z,99820.60
2023-03-05T18:41:34.578Z,99819.56
2023-03-05T18:43:52.362Z,99819.84
2023-03-05T18:46:09.473Z,99818.60
2023-03-05T18:48:24.391Z,99820.27
2023-03-05T18:50:38.134Z,99815.49
2023-03-05T18:52:59.266Z,99816.39
2023-03-05T18:55:23.294Z,99813.42
2023-03-05T18:57:36.402Z,99815.09
2023-03-05T18:59:49.107Z,99816.98
2023-03-05T19:02:01.206Z,99815.05
2023-03-05T19:04:13.206Z,99814.46
2023-03-05T19:06:24.856Z,99813.29
2023-03-05T19:08:36.790Z,99816.33
2023-03-05T19:10:48.674Z,99812.75
2023-03-05T19:13:40.200Z,99809.66
2023-03-05T19:15:52.852Z,99807.21
2023-03-05T19:18:05.118Z,99805.04
2023-03-05T19:20:18.385Z,99800.30
2023-03-05T19:22:32.530Z,99805.41
2023-03-05T19:24:44.493Z,99800.56
2023-03-05T19:27:00.358Z,99797.45
2023-03-05T19:29:12.866Z,99801.75
2023-03-05T19:31:25.837Z,99799.63
2023-03-05T19:33:38.293Z,99801.89
2023-03-05T19:35:50.524Z,99805.04
2023-03-05T19:38:02.692Z,99804.29
2023-03-05T19:40:15.805Z,99800.54
2023-03-05T19:42:32.619Z,99799.23
2023-03-05T19:44:47.021Z,99798.60
2023-03-05T19:47:02.129Z,99799.61
2023-03-05T19:49:16.811Z,99798.84
2023-03-05T19:51:29.397Z,99792.14
2023-03-05T19:53:48.593Z,99791.50
2023-03-05T19:56:04.990Z,99788.83
2023-03-05T19:58:21.600Z,99787.48
2023-03-05T20:00:34.487Z,99784.11
2023-03-05T20:02:48.986Z,99780.73
2023-03-05T20:05:06.366Z,99778.25
2023-03-05T20:07:19.300Z,99775.25
2023-03-05T20:09:35.726Z,99774.71
2023-03-05T20:11:49.510Z,99775.08
2023-03-05T20:14:03.375Z,99772.63
2023-03-05T20:16:22.067Z,99772.73
2023-03-05T20:18:36.731Z,99773.91
2023-03-05T20:20:55.041Z,99772.94
2023-03-05T20:23:08.303Z,99770.86
2023-03-05T20:25:25.918Z,99773.23
2023-03-05T20:27:39.885Z,99772.63
2023-03-05T20:29:51.983Z,99774.80
2023-03-05T20:32:04.827Z,99775.34
2023-03-05T20:34:20.143Z,99780.60
2023-03-05T20:36:34.730Z,99780.60
2023-03-05T20:38:46.721Z,99781.77
2023-03-05T20:41:00.051Z,99782.09
2023-03-05T20:43:12.041Z,99782.22
2023-03-05T20:45:23.832Z,99782.95
2023-03-05T20:50:19.569Z,99783.23
2023-03-05T20:52:38.255Z,99783.09
2023-03-05T20:54:50.378Z,99785.06
2023-03-05T20:57:02.309Z,99779.56
2023-03-05T20:59:14.519Z,99783.80
2023-03-05T21:01:28.276Z,99779.68
2023-03-05T21:03:41.266Z,99782.25
2023-03-05T21:05:56.648Z,99779.14
2023-03-05T21:08:08.636Z,99782.08
2023-03-05T21:10:21.043Z,99779.84
2023-03-05T21:12:33.798Z,99778.55
2023-03-05T21:14:46.005Z,99776.66
2023-03-05T21:16:57.845Z,99777.34
2023-03-05T21:19:09.837Z,99773.88
2023-03-05T21:21:21.524Z,99769.39
2023-03-05T21:23:34.133Z,99772.14
2023-03-05T21:25:47.368Z,99776.64
2023-03-05T21:28:02.957Z,99773.02
2023-03-05T21:30:14.835Z,99773.89
2023-03-05T21:32:26.769Z,99773.54
2023-03-05T21:34:38.776Z,99770.79
2023-03-05T21:36:50.316Z,99770.74
2023-03-05T21:39:01.604Z,99768.41
2023-03-05T21:41:14.054Z,99765.59
2023-03-05T21:43:26.970Z,99763.34
2023-03-05T21:45:40.078Z,99763.11
2023-03-05T21:47:52.910Z,99763.08
2023-03-05T21:50:06.220Z,99765.73
2023-03-05T21:52:17.961Z,99762.61
2023-03-05T21:54:29.736Z,99762.11
2023-03-05T21:56:41.527Z,99762.36
2023-03-05T21:58:54.032Z,99761.38
2023-03-05T22:01:06.272Z,99756.66
2023-03-05T22:03:18.122Z,99750.91
2023-03-05T22:05:29.910Z,99751.91
2023-03-05T22:07:42.735Z,99749.95
2023-03-05T22:09:56.661Z,99748.11
2023-03-05T22:12:33.645Z,99744.27
2023-03-05T22:14:48.405Z,99744.05
2023-03-05T22:17:02.278Z,99744.59
2023-03-05T22:19:14.208Z,99740.83
2023-03-05T22:21:28.183Z,99737.05
2023-03-05T22:23:39.964Z,99738.27
2023-03-05T22:25:59.851Z,99732.92
2023-03-05T22:28:13.815Z,99731.02
2023-03-05T22:30:26.100Z,99728.14
2023-03-05T22:32:39.666Z,99727.20
2023-03-05T22:34:56.013Z,99727.42
2023-03-05T22:37:08.212Z,99723.27
2023-03-05T22:39:20.005Z,99725.42
2023-03-05T22:41:31.894Z,99721.11
2023-03-05T22:43:44.095Z,99725.09
2023-03-05T22:45:55.982Z,99719.60
2023-03-05T22:48:10.134Z,99718.20
2023-03-05T22:50:22.153Z,99718.88
2023-03-05T22:52:34.018Z,99716.31
2023-03-05T22:54:45.603Z,99716.40
2023-03-05T22:56:57.393Z,99717.89
2023-03-05T22:59:09.284Z,99717.97
2023-03-05T23:01:24.153Z,99718.05
2023-03-05T23:03:36.356Z,99718.41
2023-03-05T23:05:48.353Z,99717.60
2023-03-05T23:07:59.946Z,99711.73
2023-03-05T23:10:13.666Z,99713.23
2023-03-05T23:12:28.549Z,99709.80
2023-03-05T23:14:40.532Z,99710.89
2023-03-05T23:16:52.525Z,99707.08
2023-03-05T23:19:04.211Z,99709.14
2023-03-05T23:21:15.909Z,99701.77
2023-03-05T23:23:28.101Z,99706.38
2023-03-05T23:25:39.795Z,99701.09
2023-03-05T23:27:51.782Z,99703.83
2023-03-05T23:30:17.525Z,99702.20
2023-03-05T23:32:29.644Z,99701.17
2023-03-05T23:34:41.899Z,99699.60
2023-03-05T23:36:53.686Z,99696.82
2023-03-05T23:39:05.487Z,99701.52
2023-03-05T23:41:17.545Z,99702.67
2023-03-05T23:43:30.378Z,99700.46
2023-03-05T23:45:43.862Z,99699.66
2023-03-05T23:47:56.192Z,99697.14
2023-03-05T23:50:13.078Z,99701.16
2023-03-05T23:52:25.015Z,99700.24
2023-03-05T23:54:37.319Z,99700.57
2023-03-05T23:56:49.114Z,99697.41
2023-03-05T23:59:01.725Z,99696.16
